Time;durP1;ratioP1;P1;durP2;ratioP2;P2;SDS_P1;SDS_P2;PMS_P1;PMS_P2;Temp;Humidity;BMP_temperature;BMP_pressure;BME280_temperature;BME280_humidity;BME280_pressure;Samples;Min_cycle;Max_cycle;Signal;HPM_P1;HPM_P2
2024/01/19 00:01:43;;;;;;;18.20;8.83;;;-2.00;99.90;;;;;;5092365;28;20020;-78
2024/01/19 00:04:08;;;;;;;17.17;8.07;;;-2.10;99.90;;;;;;5092970;28;20103;-80
2024/01/19 00:06:38;;;;;;;18.10;8.50;;;-2.40;99.90;;;;;;5092502;28;20027;-81
2024/01/19 00:09:04;;;;;;;16.33;7.57;;;-2.50;99.90;;;;;;5092120;28;20391;-78
2024/01/19 00:11:29;;;;;;;20.87;8.47;;;-2.40;99.90;;;;;;5092798;28;20035;-79
2024/01/19 00:13:55;;;;;;;20.43;9.00;;;-2.40;99.90;;;;;;5092109;28;20098;-79
2024/01/19 00:16:20;;;;;;;18.73;8.03;;;-2.30;99.90;;;;;;5089939;28;20020;-79
2024/01/19 00:18:46;;;;;;;17.63;7.93;;;-2.20;99.90;;;;;;5084115;28;20035;-80
2024/01/19 00:21:11;;;;;;;23.37;9.33;;;-2.10;99.90;;;;;;5092864;28;20028;-78
2024/01/19 00:23:37;;;;;;;19.67;9.00;;;-2.10;99.90;;;;;;5092988;28;20051;-77
2024/01/19 00:26:03;;;;;;;22.43;10.70;;;-2.10;99.90;;;;;;5092197;28;20431;-80
2024/01/19 00:28:28;;;;;;;24.80;10.10;;;-2.00;99.90;;;;;;5092018;28;20032;-79
2024/01/19 00:30:54;;;;;;;23.70;9.50;;;-1.90;99.90;;;;;;5091491;28;20086;-78
2024/01/19 00:33:19;;;;;;;25.63;10.93;;;-1.70;99.90;;;;;;5092520;28;20028;-78
2024/01/19 00:35:45;;;;;;;22.33;10.33;;;-1.60;99.90;;;;;;5092449;28;20024;-78
2024/01/19 00:38:10;;;;;;;22.50;9.93;;;-1.50;99.90;;;;;;5091709;28;20091;-78
2024/01/19 00:40:36;;;;;;;22.97;9.67;;;-1.30;99.90;;;;;;5090596;28;20472;-78
2024/01/19 00:43:03;;;;;;;25.17;10.10;;;-1.30;99.90;;;;;;5110013;28;20090;-77
2024/01/19 00:45:28;;;;;;;19.27;9.30;;;-1.20;99.90;;;;;;5094637;28;20027;-78
2024/01/19 00:47:54;;;;;;;22.57;10.10;;;-1.20;99.90;;;;;;5079836;28;20020;-78
2024/01/19 00:50:19;;;;;;;22.43;9.87;;;-1.20;99.90;;;;;;5083557;28;20031;-78
2024/01/19 00:52:45;;;;;;;19.87;9.63;;;-1.20;99.90;;;;;;5112909;28;20019;-78
2024/01/19 00:55:11;;;;;;;19.47;8.33;;;-1.40;99.90;;;;;;5095237;28;20031;-78
2024/01/19 00:57:37;;;;;;;21.90;10.03;;;-1.50;99.90;;;;;;5112938;28;20024;-78
2024/01/19 01:00:03;;;;;;;19.27;9.07;;;-1.50;99.90;;;;;;5095317;28;20061;-78
2024/01/19 01:02:29;;;;;;;21.03;9.03;;;-1.60;99.90;;;;;;5113003;28;20020;-78
2024/01/19 01:04:55;;;;;;;19.13;9.33;;;-1.50;99.90;;;;;;5095461;28;20023;-78
2024/01/19 01:07:22;;;;;;;18.23;9.07;;;-1.50;99.90;;;;;;5095724;28;20069;-78
2024/01/19 01:09:47;;;;;;;21.40;8.97;;;-1.60;99.90;;;;;;5094975;28;20410;-79
2024/01/19 01:12:14;;;;;;;23.17;9.43;;;-1.50;99.90;;;;;;5113302;28;20019;-78
2024/01/19 01:14:39;;;;;;;23.40;10.10;;;-1.40;99.90;;;;;;5094979;28;20408;-79
2024/01/19 01:17:05;;;;;;;21.70;9.73;;;-1.30;99.90;;;;;;5095243;28;20108;-78
2024/01/19 01:19:32;;;;;;;23.70;9.43;;;-1.30;99.90;;;;;;5112749;28;20114;-79
2024/01/19 01:21:58;;;;;;;21.70;10.90;;;-1.30;99.90;;;;;;5113599;28;20441;-79
2024/01/19 01:24:24;;;;;;;22.30;10.17;;;-1.30;99.90;;;;;;5094921;28;20020;-80
2024/01/19 01:26:49;;;;;;;22.83;9.50;;;-1.20;99.90;;;;;;5095253;28;20019;-78
2024/01/19 01:29:15;;;;;;;20.87;9.63;;;-1.20;99.90;;;;;;5112977;28;20042;-78
2024/01/19 01:31:40;;;;;;;21.67;10.60;;;-1.20;99.90;;;;;;5112300;28;20031;-78
2024/01/19 01:34:07;;;;;;;21.07;9.93;;;-1.20;99.90;;;;;;5113090;28;20461;-78
2024/01/19 01:36:33;;;;;;;22.63;10.77;;;-1.20;99.90;;;;;;5094359;28;20019;-77
2024/01/19 01:38:58;;;;;;;20.93;9.43;;;-1.20;99.90;;;;;;5096186;28;20026;-77
2024/01/19 01:41:24;;;;;;;23.53;9.53;;;-1.20;99.90;;;;;;5097956;28;20069;-77
2024/01/19 01:43:50;;;;;;;19.07;9.67;;;-1.10;99.90;;;;;;5113981;28;20019;-77
2024/01/19 01:46:15;;;;;;;23.10;10.07;;;-1.10;99.90;;;;;;5116066;28;20016;-77
2024/01/19 01:48:41;;;;;;;25.03;9.63;;;-1.10;99.90;;;;;;5098116;28;20349;-80
2024/01/19 01:51:08;;;;;;;20.30;8.90;;;-1.00;99.90;;;;;;5116370;28;20062;-77
2024/01/19 01:53:34;;;;;;;20.00;8.87;;;-1.00;99.90;;;;;;5115667;28;20073;-78
2024/01/19 01:56:00;;;;;;;23.70;10.10;;;-1.00;99.90;;;;;;5116339;28;20030;-78
2024/01/19 01:58:26;;;;;;;24.30;10.17;;;-1.00;99.90;;;;;;5108504;28;20094;-79
2024/01/19 02:00:52;;;;;;;22.00;9.77;;;-1.00;99.90;;;;;;5115877;28;20039;-78
2024/01/19 02:03:18;;;;;;;24.23;10.73;;;-0.90;99.90;;;;;;5101323;28;20015;-78
2024/01/19 02:05:44;;;;;;;25.57;10.37;;;-0.80;99.90;;;;;;5097359;28;20073;-77
2024/01/19 02:08:09;;;;;;;22.63;10.20;;;-0.90;99.90;;;;;;5111461;28;20015;-79
2024/01/19 02:10:35;;;;;;;21.83;9.47;;;-0.90;99.90;;;;;;5115360;28;20027;-79
2024/01/19 02:13:01;;;;;;;20.73;9.90;;;-0.90;99.90;;;;;;5115830;28;20027;-78
2024/01/19 02:15:27;;;;;;;22.40;9.93;;;-0.80;99.90;;;;;;5115273;28;20024;-78
2024/01/19 02:17:54;;;;;;;24.47;10.23;;;-0.80;99.90;;;;;;5094462;28;20072;-77
2024/01/19 02:20:20;;;;;;;26.93;10.90;;;-0.70;99.90;;;;;;5115763;28;20024;-77
2024/01/19 02:22:47;;;;;;;23.77;10.47;;;-0.70;99.90;;;;;;5097005;28;20519;-77
2024/01/19 02:25:13;;;;;;;27.77;11.17;;;-0.70;99.90;;;;;;5116092;28;20349;-78
2024/01/19 02:27:38;;;;;;;24.27;10.60;;;-0.70;99.90;;;;;;5096944;28;20102;-78
2024/01/19 02:30:08;;;;;;;24.13;11.10;;;-0.70;99.90;;;;;;5115877;28;20114;-77
2024/01/19 02:32:34;;;;;;;24.90;11.27;;;-0.70;99.90;;;;;;5115291;28;20022;-77
2024/01/19 02:35:00;;;;;;;24.80;9.63;;;-0.60;99.90;;;;;;5097357;28;20020;-77
2024/01/19 02:37:25;;;;;;;22.37;9.77;;;-0.60;99.90;;;;;;5115128;28;20024;-77
2024/01/19 02:39:51;;;;;;;23.73;9.07;;;-0.60;99.90;;;;;;5115242;28;20055;-77
2024/01/19 02:42:17;;;;;;;24.67;9.70;;;-0.60;99.90;;;;;;5115338;28;20396;-77
2024/01/19 02:44:42;;;;;;;25.27;10.17;;;-0.50;99.90;;;;;;5096562;28;20088;-77
2024/01/19 02:47:08;;;;;;;22.93;9.73;;;-0.60;99.90;;;;;;5115035;28;20028;-77
2024/01/19 02:49:33;;;;;;;19.83;9.67;;;-0.50;99.90;;;;;;5114493;28;20023;-76
2024/01/19 02:51:59;;;;;;;20.10;8.97;;;-0.50;99.90;;;;;;5114173;28;20388;-76
2024/01/19 02:54:24;;;;;;;25.77;9.53;;;-0.60;99.90;;;;;;5114521;28;20066;-81
2024/01/19 02:56:50;;;;;;;20.07;8.80;;;-0.60;99.90;;;;;;5096657;28;20027;-78
2024/01/19 02:59:16;;;;;;;19.80;9.03;;;-0.60;99.90;;;;;;5096904;28;20028;-77
2024/01/19 03:01:42;;;;;;;20.50;8.63;;;-0.50;99.90;;;;;;5114831;28;20046;-78
2024/01/19 03:04:07;;;;;;;19.53;9.43;;;-0.50;99.90;;;;;;5097003;28;20065;-77
2024/01/19 03:06:33;;;;;;;22.17;9.20;;;-0.40;99.90;;;;;;5096373;28;20341;-78
2024/01/19 03:08:58;;;;;;;22.87;9.13;;;-0.40;99.90;;;;;;5096615;28;20034;-78
2024/01/19 03:11:24;;;;;;;18.77;8.93;;;-0.40;99.90;;;;;;5114547;28;20042;-78
2024/01/19 03:13:52;;;;;;;23.37;8.90;;;-0.40;99.90;;;;;;5096087;28;20016;-78
2024/01/19 03:16:18;;;;;;;19.77;8.10;;;-0.40;99.90;;;;;;5096648;28;20069;-77
2024/01/19 03:18:44;;;;;;;20.00;9.23;;;-0.40;99.90;;;;;;5096278;28;20426;-77
2024/01/19 03:21:10;;;;;;;20.33;8.53;;;-0.40;99.90;;;;;;5114821;28;20099;-77
2024/01/19 03:23:36;;;;;;;18.07;8.23;;;-0.40;99.90;;;;;;5095925;28;20049;-78
2024/01/19 03:26:02;;;;;;;18.93;8.00;;;-0.30;99.90;;;;;;5096381;28;20019;-78
2024/01/19 03:28:27;;;;;;;20.83;8.10;;;-0.40;99.90;;;;;;5114156;28;20102;-79
2024/01/19 03:30:53;;;;;;;19.47;8.80;;;-0.40;99.90;;;;;;5114512;28;20031;-79
2024/01/19 03:33:18;;;;;;;17.87;8.13;;;-0.40;99.90;;;;;;5096104;28;20031;-78
2024/01/19 03:35:44;;;;;;;25.33;9.37;;;-0.40;99.90;;;;;;5113817;28;20026;-78
2024/01/19 03:38:10;;;;;;;18.23;8.87;;;-0.40;99.90;;;;;;5096313;28;20024;-77
2024/01/19 03:40:35;;;;;;;17.70;8.47;;;-0.50;99.90;;;;;;5113934;28;20059;-78
2024/01/19 03:43:02;;;;;;;18.57;7.77;;;-0.50;99.90;;;;;;5095680;28;20096;-78
2024/01/19 03:45:27;;;;;;;17.50;8.87;;;-0.50;99.90;;;;;;5095684;28;20104;-81
2024/01/19 03:47:53;;;;;;;20.87;8.83;;;-0.40;99.90;;;;;;5096248;28;20023;-77
2024/01/19 03:50:19;;;;;;;20.33;8.73;;;-0.40;99.90;;;;;;5096160;28;20030;-79
2024/01/19 03:52:44;;;;;;;18.87;8.53;;;-0.40;99.90;;;;;;5095385;28;20497;-77
2024/01/19 03:55:10;;;;;;;22.33;9.00;;;-0.40;99.90;;;;;;5096179;28;20016;-77
2024/01/19 03:57:35;;;;;;;19.03;8.93;;;-0.40;99.90;;;;;;5095414;28;20024;-78
2024/01/19 04:00:01;;;;;;;17.83;8.60;;;-0.50;99.90;;;;;;5096101;28;20024;-78
2024/01/19 04:02:27;;;;;;;18.07;8.43;;;-0.40;99.90;;;;;;5095531;28;20445;-77
2024/01/19 04:04:52;;;;;;;18.47;7.50;;;-0.50;99.90;;;;;;5113340;28;20058;-77
2024/01/19 04:07:18;;;;;;;20.03;8.90;;;-0.40;99.90;;;;;;5095666;28;20062;-77
2024/01/19 04:09:44;;;;;;;23.57;9.03;;;-0.50;99.90;;;;;;5094951;28;20521;-78
2024/01/19 04:12:15;;;;;;;21.53;8.80;;;-0.50;99.90;;;;;;5095632;28;20035;-77
2024/01/19 04:14:42;;;;;;;24.47;9.10;;;-0.50;99.90;;;;;;5113239;28;20090;-77
2024/01/19 04:17:09;;;;;;;19.60;8.60;;;-0.50;99.90;;;;;;5095447;28;20092;-77
2024/01/19 04:19:35;;;;;;;23.33;10.03;;;-0.50;99.90;;;;;;5113134;28;20016;-77
2024/01/19 04:22:00;;;;;;;22.53;9.63;;;-0.50;99.90;;;;;;5095392;28;20020;-77
2024/01/19 04:24:26;;;;;;;22.57;10.27;;;-0.50;99.90;;;;;;5113596;28;20393;-77
2024/01/19 04:26:51;;;;;;;25.10;9.57;;;-0.50;99.90;;;;;;5094761;28;20028;-77
2024/01/19 04:29:17;;;;;;;27.30;10.27;;;-0.50;99.90;;;;;;5112806;28;20483;-77
2024/01/19 04:31:43;;;;;;;22.13;10.43;;;-0.60;99.90;;;;;;5094896;28;20094;-78
2024/01/19 04:34:08;;;;;;;21.63;9.50;;;-0.60;99.90;;;;;;5095099;28;20016;-77
2024/01/19 04:36:34;;;;;;;21.53;9.47;;;-0.60;99.90;;;;;;5113093;28;20016;-78
2024/01/19 04:39:00;;;;;;;24.33;9.60;;;-0.60;99.90;;;;;;5095288;28;20110;-77
2024/01/19 04:41:25;;;;;;;22.30;9.37;;;-0.60;99.90;;;;;;5094756;28;20116;-78
2024/01/19 04:43:51;;;;;;;23.00;10.53;;;-0.60;99.90;;;;;;5094638;28;20039;-77
2024/01/19 04:46:16;;;;;;;24.40;10.47;;;-0.60;99.90;;;;;;5113447;28;20410;-77
2024/01/19 04:48:42;;;;;;;24.67;10.80;;;-0.60;99.90;;;;;;5094918;28;20114;-78
2024/01/19 04:51:08;;;;;;;21.60;10.27;;;-0.70;99.90;;;;;;5095255;28;20027;-78
2024/01/19 04:53:33;;;;;;;25.10;9.70;;;-0.70;99.90;;;;;;5094631;28;20429;-78
2024/01/19 04:55:59;;;;;;;22.73;10.17;;;-0.80;99.90;;;;;;5095134;28;20016;-78
2024/01/19 04:58:25;;;;;;;29.30;10.80;;;-0.80;99.90;;;;;;5113381;28;20031;-78
2024/01/19 05:00:50;;;;;;;20.97;9.47;;;-0.90;99.90;;;;;;5094849;28;20483;-77
2024/01/19 05:03:16;;;;;;;26.87;11.23;;;-1.00;99.90;;;;;;5095056;28;20106;-78
2024/01/19 05:05:41;;;;;;;24.87;11.07;;;-1.00;99.90;;;;;;5112540;28;20452;-78
2024/01/19 05:08:07;;;;;;;25.77;10.80;;;-0.90;99.90;;;;;;5113439;28;20031;-77
2024/01/19 05:10:34;;;;;;;25.90;10.50;;;-1.00;99.90;;;;;;5094496;28;20027;-82
2024/01/19 05:12:59;;;;;;;24.07;10.43;;;-0.90;99.90;;;;;;5095045;28;20026;-78
2024/01/19 05:15:25;;;;;;;22.83;10.60;;;-0.90;99.90;;;;;;5099127;28;20313;-77
2024/01/19 05:17:50;;;;;;;28.77;10.00;;;-0.90;99.90;;;;;;5098441;28;20019;-77
2024/01/19 05:20:18;;;;;;;21.87;10.80;;;-0.90;99.90;;;;;;5116963;28;20027;-77
2024/01/19 05:22:43;;;;;;;25.23;9.87;;;-0.90;99.90;;;;;;5098366;28;20110;-77
2024/01/19 05:25:09;;;;;;;28.30;10.33;;;-0.90;99.90;;;;;;5098735;28;20111;-77
2024/01/19 05:27:35;;;;;;;20.37;9.67;;;-0.90;99.90;;;;;;5097937;28;20454;-77
2024/01/19 05:30:01;;;;;;;25.23;10.50;;;-0.90;99.90;;;;;;5098338;28;20024;-77
2024/01/19 05:32:26;;;;;;;23.40;9.90;;;-0.90;99.90;;;;;;5116606;28;20363;-77
2024/01/19 05:34:52;;;;;;;24.63;10.23;;;-1.00;99.90;;;;;;5097753;28;20015;-77
2024/01/19 05:37:17;;;;;;;22.33;10.57;;;-1.00;99.90;;;;;;5098286;28;20023;-77
2024/01/19 05:39:43;;;;;;;24.83;10.03;;;-1.00;99.90;;;;;;5115936;28;20389;-77
2024/01/19 05:42:09;;;;;;;22.47;10.13;;;-1.00;99.90;;;;;;5097684;28;20079;-77
2024/01/19 05:44:34;;;;;;;26.27;11.47;;;-1.00;99.90;;;;;;5097065;28;20019;-82
2024/01/19 05:47:00;;;;;;;26.43;10.03;;;-1.10;99.90;;;;;;5098190;28;20073;-77
2024/01/19 05:49:26;;;;;;;28.67;10.80;;;-1.10;99.90;;;;;;5116585;28;20024;-76
2024/01/19 05:51:51;;;;;;;27.37;11.67;;;-1.10;99.90;;;;;;5115721;28;20024;-77
2024/01/19 05:54:18;;;;;;;26.40;10.23;;;-1.10;99.90;;;;;;5116190;28;20469;-77
2024/01/19 05:56:43;;;;;;;21.37;10.10;;;-1.10;99.90;;;;;;5115825;28;20035;-78
2024/01/19 05:59:09;;;;;;;21.97;10.40;;;-1.10;99.90;;;;;;5116363;28;20368;-77
2024/01/19 06:01:35;;;;;;;26.73;10.80;;;-1.20;99.90;;;;;;5097943;28;20019;-77
2024/01/19 06:04:01;;;;;;;28.90;10.90;;;-1.20;99.90;;;;;;5097744;28;20452;-77
2024/01/19 06:06:26;;;;;;;24.97;10.57;;;-1.20;99.90;;;;;;5115992;28;20022;-77
2024/01/19 06:08:52;;;;;;;27.10;11.13;;;-1.20;99.90;;;;;;5097401;28;20406;-77
2024/01/19 06:11:17;;;;;;;27.77;11.27;;;-1.30;99.90;;;;;;5097547;28;20031;-77
2024/01/19 06:13:45;;;;;;;28.10;11.73;;;-1.30;99.90;;;;;;5097339;28;20110;-77
2024/01/19 06:16:11;;;;;;;27.00;11.47;;;-1.20;99.90;;;;;;5097630;28;20016;-77
2024/01/19 06:18:36;;;;;;;25.23;11.10;;;-1.20;99.90;;;;;;5097527;28;20409;-82
2024/01/19 06:21:02;;;;;;;28.67;10.93;;;-1.30;99.90;;;;;;5097483;28;20023;-78
2024/01/19 06:23:28;;;;;;;24.07;10.90;;;-1.30;99.90;;;;;;5097667;28;20024;-77
2024/01/19 06:25:54;;;;;;;29.17;11.67;;;-1.30;99.90;;;;;;5096750;28;20504;-77
2024/01/19 06:28:21;;;;;;;23.33;10.70;;;-1.30;99.90;;;;;;5115755;28;20089;-77
2024/01/19 06:30:46;;;;;;;32.93;12.87;;;-1.20;99.90;;;;;;5097060;28;20122;-78
2024/01/19 06:33:12;;;;;;;29.07;10.50;;;-1.30;99.90;;;;;;5115599;28;20494;-77
2024/01/19 06:35:37;;;;;;;27.70;11.93;;;-1.30;99.90;;;;;;5097113;28;20096;-83
2024/01/19 06:38:06;;;;;;;27.60;11.43;;;-1.30;99.90;;;;;;5097222;28;20366;-77
2024/01/19 06:40:31;;;;;;;26.23;11.00;;;-1.30;99.90;;;;;;5097057;28;20027;-77
2024/01/19 06:42:57;;;;;;;27.43;11.10;;;-1.30;99.90;;;;;;5114368;28;20282;-78
2024/01/19 06:45:22;;;;;;;28.10;11.27;;;-1.30;99.90;;;;;;5097143;28;20106;-77
2024/01/19 06:47:48;;;;;;;27.07;11.90;;;-1.40;99.90;;;;;;5115066;28;20019;-77
2024/01/19 06:50:13;;;;;;;27.20;11.27;;;-1.40;99.90;;;;;;5115174;28;20062;-77
2024/01/19 06:52:39;;;;;;;27.90;12.03;;;-1.40;99.90;;;;;;5096508;28;20068;-78
2024/01/19 06:55:05;;;;;;;30.80;11.87;;;-1.40;99.90;;;;;;5096896;28;20488;-77
2024/01/19 06:57:31;;;;;;;30.77;11.67;;;-1.40;99.90;;;;;;5096492;28;20371;-77
2024/01/19 06:59:57;;;;;;;27.07;11.97;;;-1.40;99.90;;;;;;5096363;28;20049;-77
2024/01/19 07:02:23;;;;;;;27.23;11.83;;;-1.40;99.90;;;;;;5114871;28;20019;-77
2024/01/19 07:04:49;;;;;;;24.70;11.37;;;-1.40;99.90;;;;;;5096321;28;20045;-77
2024/01/19 07:07:15;;;;;;;25.67;11.20;;;-1.40;99.90;;;;;;5096738;28;20023;-77
2024/01/19 07:09:41;;;;;;;26.63;11.73;;;-1.40;99.90;;;;;;5114861;28;20405;-78
2024/01/19 07:12:07;;;;;;;29.00;11.17;;;-1.40;99.90;;;;;;5096613;28;20031;-77
2024/01/19 07:14:32;;;;;;;28.77;11.93;;;-1.40;99.90;;;;;;5096681;28;20031;-77
2024/01/19 07:16:58;;;;;;;32.83;12.73;;;-1.40;99.90;;;;;;5114024;28;20024;-77
2024/01/19 07:19:23;;;;;;;29.60;12.93;;;-1.40;99.90;;;;;;5096507;28;20038;-77
2024/01/19 07:21:49;;;;;;;37.43;13.70;;;-1.40;99.90;;;;;;5096108;28;20321;-77
2024/01/19 07:24:15;;;;;;;29.63;12.23;;;-1.40;99.90;;;;;;5096408;28;20015;-77
2024/01/19 07:26:41;;;;;;;32.53;13.07;;;-1.40;99.90;;;;;;5095571;28;20364;-81
2024/01/19 07:29:09;;;;;;;27.23;12.10;;;-1.40;99.90;;;;;;5114345;28;20023;-77
2024/01/19 07:31:35;;;;;;;31.57;12.10;;;-1.40;99.90;;;;;;5113816;28;20376;-77
2024/01/19 07:34:01;;;;;;;28.83;12.20;;;-1.30;99.90;;;;;;5096486;28;20023;-77
2024/01/19 07:36:26;;;;;;;28.40;12.03;;;-1.30;99.90;;;;;;5096068;28;20031;-78
2024/01/19 07:38:52;;;;;;;28.00;11.93;;;-1.30;99.90;;;;;;5095305;28;20016;-77
2024/01/19 07:41:18;;;;;;;29.57;11.30;;;-1.40;99.90;;;;;;5095794;28;20059;-77
2024/01/19 07:43:44;;;;;;;32.57;11.93;;;-1.40;99.90;;;;;;5095726;28;20034;-81
2024/01/19 07:46:11;;;;;;;27.97;11.57;;;-1.40;99.90;;;;;;5113867;28;20024;-78
2024/01/19 07:48:37;;;;;;;28.03;11.63;;;-1.40;99.90;;;;;;5095985;28;20019;-77
2024/01/19 07:51:03;;;;;;;28.70;11.40;;;-1.50;99.90;;;;;;5113003;28;20158;-77
2024/01/19 07:53:29;;;;;;;25.97;12.00;;;-1.40;99.90;;;;;;5113427;28;20435;-77
2024/01/19 07:55:54;;;;;;;28.50;11.70;;;-1.30;99.90;;;;;;5095044;28;20019;-78
2024/01/19 07:58:21;;;;;;;28.67;11.83;;;-1.30;99.90;;;;;;5095553;28;20092;-77
2024/01/19 08:00:46;;;;;;;27.07;11.63;;;-1.30;99.90;;;;;;5095334;28;20034;-79
2024/01/19 08:03:12;;;;;;;33.03;12.90;;;-1.30;99.90;;;;;;5095794;28;20024;-78
2024/01/19 08:05:38;;;;;;;33.03;12.13;;;-1.30;99.90;;;;;;5095841;28;20035;-78
2024/01/19 08:08:04;;;;;;;34.53;12.73;;;-1.30;99.90;;;;;;5094922;28;20059;-79
2024/01/19 08:10:32;;;;;;;30.83;12.30;;;-1.30;99.90;;;;;;5095730;28;20031;-79
2024/01/19 08:12:59;;;;;;;29.97;11.93;;;-1.20;99.90;;;;;;5113166;28;20019;-78
2024/01/19 08:15:25;;;;;;;31.50;12.50;;;-1.20;99.90;;;;;;5095935;28;20531;-79
2024/01/19 08:17:50;;;;;;;29.13;11.63;;;-1.20;99.90;;;;;;5113238;28;20027;-79
2024/01/19 08:20:16;;;;;;;30.63;13.17;;;-1.20;99.90;;;;;;5095113;28;20498;-78
2024/01/19 08:22:42;;;;;;;34.13;12.80;;;-1.30;99.90;;;;;;5095543;28;20023;-78
2024/01/19 08:25:09;;;;;;;27.30;11.67;;;-1.30;99.90;;;;;;5112829;28;20020;-77
2024/01/19 08:27:35;;;;;;;30.77;12.20;;;-1.30;99.90;;;;;;5094400;28;20527;-77
2024/01/19 08:30:00;;;;;;;25.57;12.17;;;-1.30;99.90;;;;;;5094244;28;20055;-77
2024/01/19 08:32:26;;;;;;;30.73;11.90;;;-1.30;99.90;;;;;;5094887;28;20027;-77
2024/01/19 08:34:52;;;;;;;32.07;12.37;;;-1.30;99.90;;;;;;5112830;28;20112;-78
2024/01/19 08:37:17;;;;;;;33.77;12.90;;;-1.20;99.90;;;;;;5095113;28;20027;-77
2024/01/19 08:39:46;;;;;;;35.23;12.07;;;-1.20;99.90;;;;;;5095234;28;20020;-76
2024/01/19 08:42:12;;;;;;;37.93;13.57;;;-1.30;99.90;;;;;;5091061;28;20043;-78
2024/01/19 08:44:37;;;;;;;31.10;13.67;;;-1.20;99.90;;;;;;5091203;28;20078;-77
2024/01/19 08:47:03;;;;;;;34.67;13.40;;;-1.20;99.90;;;;;;5090808;28;20028;-77
2024/01/19 08:49:29;;;;;;;30.97;13.43;;;-1.30;99.90;;;;;;5094269;28;20020;-78
2024/01/19 08:51:55;;;;;;;36.87;13.03;;;-1.20;99.90;;;;;;5094804;28;20361;-79
2024/01/19 08:54:20;;;;;;;33.27;12.73;;;-1.20;99.90;;;;;;5095606;28;20024;-78
2024/01/19 08:56:46;;;;;;;31.77;13.17;;;-1.20;99.90;;;;;;5096302;28;20641;-82
2024/01/19 08:59:12;;;;;;;31.13;13.30;;;-1.20;99.90;;;;;;5095352;28;20032;-77
2024/01/19 09:01:38;;;;;;;32.43;13.43;;;-1.20;99.90;;;;;;5097064;28;20028;-77
2024/01/19 09:04:04;;;;;;;29.90;12.27;;;-1.20;99.90;;;;;;5094883;28;20518;-77
2024/01/19 09:06:30;;;;;;;32.70;12.80;;;-1.20;99.90;;;;;;5095148;28;20020;-76
2024/01/19 09:09:01;;;;;;;30.83;12.87;;;-1.10;99.90;;;;;;5095009;28;20031;-77
2024/01/19 09:11:26;;;;;;;30.30;12.70;;;-1.10;99.90;;;;;;5096106;28;20070;-77
2024/01/19 09:13:52;;;;;;;27.47;12.10;;;-1.10;99.90;;;;;;5094858;28;20028;-78
2024/01/19 09:16:18;;;;;;;30.63;12.20;;;-1.10;99.90;;;;;;5095234;28;20070;-77
2024/01/19 09:18:44;;;;;;;29.43;11.37;;;-1.10;99.90;;;;;;5095605;28;20055;-77
2024/01/19 09:21:16;;;;;;;28.27;12.13;;;-1.10;99.90;;;;;;5095049;28;20031;-77
2024/01/19 09:23:42;;;;;;;30.70;12.75;;;-1.10;99.90;;;;;;5095474;28;20529;-77
2024/01/19 09:26:07;;;;;;;26.30;12.07;;;-1.10;99.90;;;;;;5094997;28;20032;-77
2024/01/19 09:28:33;;;;;;;31.97;11.47;;;-1.00;99.90;;;;;;5095225;28;20024;-77
2024/01/19 09:31:00;;;;;;;26.73;11.80;;;-1.00;99.90;;;;;;5094887;28;20077;-78
2024/01/19 09:33:25;;;;;;;29.73;11.67;;;-0.90;99.90;;;;;;5094999;28;20020;-77
2024/01/19 09:35:51;;;;;;;32.33;12.10;;;-0.80;99.90;;;;;;5095711;28;20016;-77
2024/01/19 09:38:16;;;;;;;29.13;11.60;;;-0.80;99.90;;;;;;5095844;28;20046;-76
2024/01/19 09:40:45;;;;;;;27.47;11.60;;;-0.80;99.90;;;;;;5094961;28;20081;-77
2024/01/19 09:43:12;;;;;;;25.40;11.13;;;-0.80;99.90;;;;;;5108644;28;20139;-76
2024/01/19 09:45:43;;;;;;;29.27;11.33;;;-0.80;99.90;;;;;;5079996;28;20016;-75
2024/01/19 09:48:22;;;;;;;29.40;11.40;;;-0.70;99.90;;;;;;5095864;28;20510;-75
2024/01/19 09:50:51;;;;;;;28.67;11.30;;;-0.70;99.90;;;;;;5096114;28;20031;-79
2024/01/19 09:53:33;;;;;;;25.80;11.00;;;-0.70;99.90;;;;;;5114917;28;20024;-78
2024/01/19 09:55:59;;;;;;;18.87;8.77;;;-0.60;99.90;;;;;;5095485;28;20121;-80
2024/01/19 09:58:27;;;;;;;27.57;11.50;;;-0.60;99.90;;;;;;5097415;28;20032;-80
2024/01/19 10:00:52;;;;;;;24.13;11.40;;;-0.60;99.90;;;;;;5113991;28;20016;-80
2024/01/19 10:03:19;;;;;;;29.27;11.23;;;-0.60;99.90;;;;;;5114878;28;20346;-79
2024/01/19 10:05:45;;;;;;;28.97;12.90;;;-0.60;99.90;;;;;;5114784;28;20012;-79
2024/01/19 10:08:14;;;;;;;27.33;11.77;;;-0.60;99.90;;;;;;5113855;28;20019;-78
2024/01/19 10:10:44;;;;;;;25.30;11.20;;;-0.50;99.90;;;;;;5096617;28;20074;-78
2024/01/19 10:13:10;;;;;;;24.57;10.27;;;-0.40;99.90;;;;;;5113998;28;20444;-79
2024/01/19 10:15:36;;;;;;;31.40;11.43;;;-0.30;99.90;;;;;;5096101;28;20441;-79
2024/01/19 10:18:05;;;;;;;28.97;11.47;;;-0.20;99.90;;;;;;5096025;28;20020;-79
2024/01/19 10:20:31;;;;;;;21.30;10.50;;;-0.30;99.90;;;;;;5114125;28;20028;-78
2024/01/19 10:23:17;;;;;;;26.97;11.77;;;-0.20;99.90;;;;;;5095517;28;20029;-78
2024/01/19 10:25:42;;;;;;;27.73;11.63;;;-0.20;99.90;;;;;;5090368;28;20028;-78
2024/01/19 10:28:10;;;;;;;26.27;11.93;;;-0.10;99.90;;;;;;5094884;28;20524;-78
2024/01/19 10:30:35;;;;;;;26.43;11.07;;;-0.10;99.90;;;;;;5114046;28;20456;-78
2024/01/19 10:33:06;;;;;;;27.53;12.30;;;0.00;99.90;;;;;;5113929;28;20089;-78
2024/01/19 10:35:31;;;;;;;24.83;11.17;;;0.00;99.90;;;;;;5114253;28;20111;-77
2024/01/19 10:38:05;;;;;;;27.33;11.93;;;0.00;99.90;;;;;;5113764;28;20087;-78
2024/01/19 10:40:33;;;;;;;21.53;10.57;;;0.00;99.90;;;;;;5114077;28;20031;-78
2024/01/19 10:42:59;;;;;;;28.47;11.20;;;-0.20;99.90;;;;;;5032976;28;1065828;-78
2024/01/19 10:45:34;;;;;;;27.30;10.87;;;-0.20;99.90;;;;;;5092242;28;20024;-79
2024/01/19 10:48:03;;;;;;;27.17;10.87;;;-0.20;99.90;;;;;;5093241;28;20012;-79
2024/01/19 10:50:30;;;;;;;20.93;10.13;;;-0.20;99.90;;;;;;5094891;28;20047;-79
2024/01/19 10:52:58;;;;;;;24.67;10.23;;;0.00;99.90;;;;;;5093587;28;20054;-78
2024/01/19 10:55:31;;;;;;;25.13;11.43;;;0.10;99.90;;;;;;5093383;28;20043;-78
2024/01/19 10:58:02;;;;;;;27.27;11.20;;;0.10;99.90;;;;;;5092810;28;20104;-77
2024/01/19 11:00:29;;;;;;;32.80;11.43;;;0.20;99.90;;;;;;5093768;28;20368;-77
2024/01/19 11:03:00;;;;;;;27.87;11.97;;;0.30;99.90;;;;;;5092362;28;20111;-79
2024/01/19 11:05:26;;;;;;;30.92;13.02;;;0.40;99.90;;;;;;5093335;28;20031;-78
2024/01/19 11:07:57;;;;;;;27.73;12.13;;;0.30;99.90;;;;;;5093855;28;20049;-78
2024/01/19 11:10:25;;;;;;;28.20;11.47;;;0.20;99.90;;;;;;5093112;28;20016;-78
2024/01/19 11:12:56;;;;;;;27.10;12.20;;;0.20;99.90;;;;;;5084637;28;20020;-79
2024/01/19 11:15:53;;;;;;;24.83;11.27;;;0.10;99.90;;;;;;5091821;28;20099;-79
2024/01/19 11:18:19;;;;;;;24.50;10.60;;;0.10;99.90;;;;;;5093613;28;20085;-81
2024/01/19 11:20:46;;;;;;;24.43;11.67;;;0.20;99.90;;;;;;5094235;28;20020;-78
2024/01/19 11:23:12;;;;;;;29.70;13.20;;;0.30;99.90;;;;;;5092708;28;20016;-78
2024/01/19 11:26:03;;;;;;;30.40;12.07;;;0.40;99.90;;;;;;5093003;28;20020;-78
2024/01/19 11:28:44;;;;;;;26.17;11.17;;;0.50;99.90;;;;;;5092357;28;20464;-79
2024/01/19 11:31:19;;;;;;;27.30;10.83;;;0.60;99.90;;;;;;5091599;28;20153;-76
2024/01/19 11:33:45;;;;;;;22.93;10.03;;;0.70;99.90;;;;;;5072249;28;20052;-77
2024/01/19 11:36:32;;;;;;;26.40;10.00;;;0.80;99.90;;;;;;5087342;28;20043;-77
2024/01/19 11:38:58;;;;;;;22.43;9.57;;;1.00;99.90;;;;;;5091873;28;20116;-78
2024/01/19 11:41:35;;;;;;;21.40;9.20;;;1.00;99.90;;;;;;5093462;28;20539;-78
2024/01/19 11:44:05;;;;;;;25.00;9.70;;;1.00;99.90;;;;;;5098355;28;20023;-78
2024/01/19 11:46:52;;;;;;;25.80;10.93;;;1.00;99.90;;;;;;5102311;28;20024;-79
2024/01/19 11:49:30;;;;;;;23.80;9.73;;;0.90;99.90;;;;;;5108768;28;20024;-77
2024/01/19 11:52:01;;;;;;;22.87;9.70;;;0.90;99.90;;;;;;5097602;28;20028;-77
2024/01/19 11:54:32;;;;;;;24.30;9.77;;;0.90;99.90;;;;;;5101489;28;20452;-77
2024/01/19 11:57:30;;;;;;;27.17;10.83;;;0.80;99.90;;;;;;5071074;28;20288;-77
2024/01/19 11:59:56;;;;;;;25.43;10.43;;;0.90;99.90;;;;;;5060762;28;20027;-78
2024/01/19 12:02:30;;;;;;;28.77;11.20;;;0.90;99.90;;;;;;5102271;28;20027;-77
2024/01/19 12:04:59;;;;;;;25.57;10.93;;;1.00;99.90;;;;;;5106001;28;20376;-77
2024/01/19 12:07:25;;;;;;;29.17;11.30;;;1.00;99.90;;;;;;5095244;28;20020;-77
2024/01/19 12:10:07;;;;;;;29.77;11.53;;;1.00;99.90;;;;;;5107656;28;20077;-77
2024/01/19 12:12:33;;;;;;;29.67;11.30;;;1.00;99.90;;;;;;5090648;28;20040;-77
2024/01/19 12:15:02;;;;;;;30.63;12.00;;;1.10;99.90;;;;;;5105938;28;20032;-78
2024/01/19 12:17:28;;;;;;;25.43;10.67;;;1.10;99.90;;;;;;5095267;28;20027;-78
2024/01/19 12:19:54;;;;;;;25.60;10.40;;;1.10;99.90;;;;;;5108065;28;20023;-78
2024/01/19 12:22:20;;;;;;;24.27;10.23;;;1.20;99.90;;;;;;5102257;28;20027;-83
2024/01/19 12:24:46;;;;;;;22.20;10.40;;;1.30;99.90;;;;;;5112200;28;20027;-78
2024/01/19 12:27:19;;;;;;;23.73;10.37;;;1.20;99.90;;;;;;5094820;28;20032;-78
2024/01/19 12:29:45;;;;;;;27.50;10.17;;;1.20;99.90;;;;;;5096551;28;20047;-78